sensor_id;sensor_type;location;lat;lon;timestamp;P1;durP1;ratioP1;P2;durP2;ratioP2
40176;SDS011;31511;46.176;9.874;2022-12-07T00:01:15;15.17;;;7.50;;
40176;SDS011;31511;46.176;9.874;2022-12-07T00:03:41;14.73;;;8.03;;
40176;SDS011;31511;46.176;9.874;2022-12-07T00:06:09;14.97;;;9.37;;
40176;SDS011;31511;46.176;9.874;2022-12-07T00:08:36;38.20;;;15.33;;
40176;SDS011;31511;46.176;9.874;2022-12-07T00:13:30;43.90;;;16.23;;
40176;SDS011;31511;46.176;9.874;2022-12-07T00:16:04;24.53;;;12.70;;
40176;SDS011;31511;46.176;9.874;2022-12-07T00:18:31;18.03;;;9.73;;
40176;SDS011;31511;46.176;9.874;2022-12-07T00:21:04;13.53;;;8.43;;
40176;SDS011;31511;46.176;9.874;2022-12-07T00:23:32;12.48;;;8.00;;
40176;SDS011;31511;46.176;9.874;2022-12-07T00:26:05;12.63;;;7.33;;
40176;SDS011;31511;46.176;9.874;2022-12-07T00:28:32;11.73;;;7.38;;
40176;SDS011;31511;46.176;9.874;2022-12-07T00:31:09;13.80;;;7.77;;
40176;SDS011;31511;46.176;9.874;2022-12-07T00:33:38;16.87;;;9.87;;
40176;SDS011;31511;46.176;9.874;2022-12-07T00:36:05;18.37;;;9.20;;
40176;SDS011;31511;46.176;9.874;2022-12-07T00:38:33;10.63;;;6.00;;
40176;SDS011;31511;46.176;9.874;2022-12-07T00:41:01;14.87;;;7.33;;
40176;SDS011;31511;46.176;9.874;2022-12-07T00:43:29;13.67;;;6.43;;
40176;SDS011;31511;46.176;9.874;2022-12-07T00:45:56;13.03;;;6.37;;
40176;SDS011;31511;46.176;9.874;2022-12-07T00:48:24;13.70;;;6.40;;
40176;SDS011;31511;46.176;9.874;2022-12-07T00:50:52;10.80;;;6.73;;
40176;SDS011;31511;46.176;9.874;2022-12-07T00:53:20;8.23;;;5.80;;
40176;SDS011;31511;46.176;9.874;2022-12-07T00:55:47;8.23;;;5.63;;
40176;SDS011;31511;46.176;9.874;2022-12-07T00:58:14;8.07;;;4.67;;
40176;SDS011;31511;46.176;9.874;2022-12-07T01:00:41;8.80;;;5.50;;
40176;SDS011;31511;46.176;9.874;2022-12-07T01:03:08;11.00;;;5.53;;
40176;SDS011;31511;46.176;9.874;2022-12-07T01:05:35;10.73;;;5.50;;
40176;SDS011;31511;46.176;9.874;2022-12-07T01:08:01;12.67;;;8.40;;
40176;SDS011;31511;46.176;9.874;2022-12-07T01:10:29;16.53;;;9.93;;
40176;SDS011;31511;46.176;9.874;2022-12-07T01:12:57;12.40;;;8.23;;
40176;SDS011;31511;46.176;9.874;2022-12-07T01:15:24;12.03;;;6.70;;
40176;SDS011;31511;46.176;9.874;2022-12-07T01:17:53;9.60;;;7.13;;
40176;SDS011;31511;46.176;9.874;2022-12-07T01:20:20;9.33;;;6.17;;
40176;SDS011;31511;46.176;9.874;2022-12-07T01:22:48;11.03;;;5.93;;
40176;SDS011;31511;46.176;9.874;2022-12-07T01:25:14;11.30;;;6.00;;
40176;SDS011;31511;46.176;9.874;2022-12-07T01:27:41;15.13;;;6.47;;
40176;SDS011;31511;46.176;9.874;2022-12-07T01:30:07;10.13;;;6.33;;
40176;SDS011;31511;46.176;9.874;2022-12-07T01:32:34;11.10;;;7.70;;
40176;SDS011;31511;46.176;9.874;2022-12-07T01:35:00;13.80;;;8.87;;
40176;SDS011;31511;46.176;9.874;2022-12-07T01:37:27;16.27;;;9.90;;
40176;SDS011;31511;46.176;9.874;2022-12-07T01:39:54;16.80;;;10.17;;
40176;SDS011;31511;46.176;9.874;2022-12-07T01:42:21;15.10;;;7.63;;
40176;SDS011;31511;46.176;9.874;2022-12-07T01:47:34;9.67;;;5.53;;
40176;SDS011;31511;46.176;9.874;2022-12-07T01:50:00;12.90;;;5.57;;
40176;SDS011;31511;46.176;9.874;2022-12-07T01:52:31;8.17;;;5.20;;
40176;SDS011;31511;46.176;9.874;2022-12-07T01:55:00;7.63;;;4.97;;
40176;SDS011;31511;46.176;9.874;2022-12-07T01:57:28;8.73;;;5.43;;
40176;SDS011;31511;46.176;9.874;2022-12-07T01:59:55;8.40;;;5.27;;
40176;SDS011;31511;46.176;9.874;2022-12-07T02:02:23;10.57;;;5.10;;
40176;SDS011;31511;46.176;9.874;2022-12-07T02:04:53;8.03;;;5.33;;
40176;SDS011;31511;46.176;9.874;2022-12-07T02:07:20;9.23;;;5.60;;
40176;SDS011;31511;46.176;9.874;2022-12-07T02:09:49;7.67;;;5.00;;
40176;SDS011;31511;46.176;9.874;2022-12-07T02:12:15;8.37;;;5.43;;
40176;SDS011;31511;46.176;9.874;2022-12-07T02:14:41;8.80;;;5.77;;
40176;SDS011;31511;46.176;9.874;2022-12-07T02:20:02;7.00;;;3.43;;
40176;SDS011;31511;46.176;9.874;2022-12-07T02:25:13;6.63;;;3.07;;
40176;SDS011;31511;46.176;9.874;2022-12-07T02:28:02;7.37;;;2.93;;
40176;SDS011;31511;46.176;9.874;2022-12-07T02:30:33;9.73;;;6.03;;
40176;SDS011;31511;46.176;9.874;2022-12-07T02:33:21;8.60;;;4.90;;
40176;SDS011;31511;46.176;9.874;2022-12-07T02:41:03;8.57;;;5.50;;
40176;SDS011;31511;46.176;9.874;2022-12-07T02:43:33;5.90;;;3.97;;
40176;SDS011;31511;46.176;9.874;2022-12-07T02:46:06;10.00;;;3.67;;
40176;SDS011;31511;46.176;9.874;2022-12-07T02:48:34;5.47;;;3.90;;
40176;SDS011;31511;46.176;9.874;2022-12-07T02:51:00;7.40;;;3.80;;
40176;SDS011;31511;46.176;9.874;2022-12-07T02:55:55;10.07;;;3.43;;
40176;SDS011;31511;46.176;9.874;2022-12-07T02:58:28;7.07;;;3.20;;
40176;SDS011;31511;46.176;9.874;2022-12-07T03:03:31;4.57;;;3.57;;
40176;SDS011;31511;46.176;9.874;2022-12-07T03:06:09;4.53;;;2.97;;
40176;SDS011;31511;46.176;9.874;2022-12-07T03:08:50;4.57;;;2.87;;
40176;SDS011;31511;46.176;9.874;2022-12-07T03:11:24;4.37;;;3.07;;
40176;SDS011;31511;46.176;9.874;2022-12-07T03:14:01;5.53;;;3.20;;
40176;SDS011;31511;46.176;9.874;2022-12-07T03:16:40;4.43;;;2.73;;
40176;SDS011;31511;46.176;9.874;2022-12-07T03:19:14;4.53;;;2.33;;
40176;SDS011;31511;46.176;9.874;2022-12-07T03:21:53;3.70;;;2.67;;
40176;SDS011;31511;46.176;9.874;2022-12-07T03:24:24;5.03;;;3.10;;
40176;SDS011;31511;46.176;9.874;2022-12-07T03:27:04;4.77;;;3.10;;
40176;SDS011;31511;46.176;9.874;2022-12-07T03:29:43;4.77;;;3.17;;
40176;SDS011;31511;46.176;9.874;2022-12-07T03:37:29;6.13;;;3.40;;
40176;SDS011;31511;46.176;9.874;2022-12-07T03:42:24;5.90;;;3.20;;
40176;SDS011;31511;46.176;9.874;2022-12-07T03:44:52;3.17;;;2.30;;
40176;SDS011;31511;46.176;9.874;2022-12-07T03:47:35;4.17;;;2.20;;
40176;SDS011;31511;46.176;9.874;2022-12-07T03:50:38;3.20;;;2.10;;
40176;SDS011;31511;46.176;9.874;2022-12-07T03:52:56;4.20;;;2.57;;
40176;SDS011;31511;46.176;9.874;2022-12-07T03:55:32;5.00;;;3.07;;
40176;SDS011;31511;46.176;9.874;2022-12-07T03:58:03;3.60;;;2.30;;
40176;SDS011;31511;46.176;9.874;2022-12-07T04:00:30;9.73;;;4.23;;
40176;SDS011;31511;46.176;9.874;2022-12-07T04:02:57;5.23;;;2.67;;
40176;SDS011;31511;46.176;9.874;2022-12-07T04:05:24;5.43;;;2.97;;
40176;SDS011;31511;46.176;9.874;2022-12-07T04:07:50;3.27;;;2.57;;
40176;SDS011;31511;46.176;9.874;2022-12-07T04:10:16;3.40;;;2.63;;
40176;SDS011;31511;46.176;9.874;2022-12-07T04:12:43;3.13;;;1.80;;
40176;SDS011;31511;46.176;9.874;2022-12-07T04:15:09;3.83;;;2.13;;
40176;SDS011;31511;46.176;9.874;2022-12-07T04:17:37;3.73;;;2.23;;
40176;SDS011;31511;46.176;9.874;2022-12-07T04:20:04;4.03;;;2.83;;
40176;SDS011;31511;46.176;9.874;2022-12-07T04:22:30;4.77;;;2.87;;
40176;SDS011;31511;46.176;9.874;2022-12-07T04:24:56;4.90;;;3.30;;
40176;SDS011;31511;46.176;9.874;2022-12-07T04:27:23;5.60;;;3.30;;
40176;SDS011;31511;46.176;9.874;2022-12-07T04:29:52;6.87;;;3.17;;
40176;SDS011;31511;46.176;9.874;2022-12-07T04:32:22;6.23;;;3.57;;
40176;SDS011;31511;46.176;9.874;2022-12-07T04:34:50;6.97;;;4.10;;
40176;SDS011;31511;46.176;9.874;2022-12-07T04:37:16;5.20;;;3.80;;
40176;SDS011;31511;46.176;9.874;2022-12-07T04:39:43;6.47;;;3.83;;
40176;SDS011;31511;46.176;9.874;2022-12-07T04:42:10;5.87;;;3.37;;
40176;SDS011;31511;46.176;9.874;2022-12-07T04:44:38;5.57;;;3.33;;
40176;SDS011;31511;46.176;9.874;2022-12-07T04:47:04;5.40;;;3.77;;
40176;SDS011;31511;46.176;9.874;2022-12-07T04:49:30;7.33;;;4.37;;
40176;SDS011;31511;46.176;9.874;2022-12-07T04:51:56;6.90;;;4.33;;
40176;SDS011;31511;46.176;9.874;2022-12-07T04:54:23;5.40;;;3.60;;
40176;SDS011;31511;46.176;9.874;2022-12-07T04:56:51;4.47;;;3.23;;
40176;SDS011;31511;46.176;9.874;2022-12-07T04:59:18;7.83;;;3.87;;
40176;SDS011;31511;46.176;9.874;2022-12-07T05:01:46;7.10;;;4.47;;
40176;SDS011;31511;46.176;9.874;2022-12-07T05:04:12;12.17;;;5.60;;
40176;SDS011;31511;46.176;9.874;2022-12-07T05:06:41;14.30;;;5.93;;
40176;SDS011;31511;46.176;9.874;2022-12-07T05:09:07;10.13;;;5.30;;
40176;SDS011;31511;46.176;9.874;2022-12-07T05:11:34;6.90;;;4.27;;
40176;SDS011;31511;46.176;9.874;2022-12-07T05:14:04;10.60;;;4.83;;
40176;SDS011;31511;46.176;9.874;2022-12-07T05:16:30;8.67;;;4.93;;
40176;SDS011;31511;46.176;9.874;2022-12-07T05:18:57;9.17;;;4.37;;
40176;SDS011;31511;46.176;9.874;2022-12-07T05:21:24;10.97;;;5.20;;
40176;SDS011;31511;46.176;9.874;2022-12-07T05:23:52;7.17;;;3.90;;
40176;SDS011;31511;46.176;9.874;2022-12-07T05:26:18;6.57;;;3.90;;
40176;SDS011;31511;46.176;9.874;2022-12-07T05:28:44;6.60;;;2.80;;
40176;SDS011;31511;46.176;9.874;2022-12-07T05:31:10;3.83;;;2.33;;
40176;SDS011;31511;46.176;9.874;2022-12-07T05:33:37;6.20;;;3.00;;
40176;SDS011;31511;46.176;9.874;2022-12-07T05:36:04;3.07;;;2.60;;
40176;SDS011;31511;46.176;9.874;2022-12-07T05:38:32;3.93;;;2.27;;
40176;SDS011;31511;46.176;9.874;2022-12-07T05:41:02;4.73;;;2.67;;
40176;SDS011;31511;46.176;9.874;2022-12-07T05:43:29;5.53;;;3.33;;
40176;SDS011;31511;46.176;9.874;2022-12-07T05:45:56;3.73;;;2.80;;
40176;SDS011;31511;46.176;9.874;2022-12-07T05:48:24;4.60;;;3.00;;
40176;SDS011;31511;46.176;9.874;2022-12-07T05:50:52;3.60;;;2.50;;
40176;SDS011;31511;46.176;9.874;2022-12-07T05:53:18;4.03;;;2.30;;
40176;SDS011;31511;46.176;9.874;2022-12-07T05:55:45;2.57;;;2.27;;
40176;SDS011;31511;46.176;9.874;2022-12-07T05:58:12;4.00;;;2.40;;
40176;SDS011;31511;46.176;9.874;2022-12-07T06:00:56;7.20;;;3.63;;
40176;SDS011;31511;46.176;9.874;2022-12-07T06:03:24;5.87;;;3.37;;
40176;SDS011;31511;46.176;9.874;2022-12-07T06:05:52;8.13;;;4.50;;
40176;SDS011;31511;46.176;9.874;2022-12-07T06:08:18;4.57;;;3.70;;
40176;SDS011;31511;46.176;9.874;2022-12-07T06:10:46;5.07;;;2.83;;
40176;SDS011;31511;46.176;9.874;2022-12-07T06:13:32;6.33;;;3.17;;
40176;SDS011;31511;46.176;9.874;2022-12-07T06:15:58;4.43;;;2.93;;
40176;SDS011;31511;46.176;9.874;2022-12-07T06:18:26;4.37;;;2.87;;
40176;SDS011;31511;46.176;9.874;2022-12-07T06:20:54;4.97;;;2.97;;
40176;SDS011;31511;46.176;9.874;2022-12-07T06:23:21;12.43;;;6.60;;
40176;SDS011;31511;46.176;9.874;2022-12-07T06:25:49;9.40;;;5.70;;
40176;SDS011;31511;46.176;9.874;2022-12-07T06:28:15;5.50;;;3.27;;
40176;SDS011;31511;46.176;9.874;2022-12-07T06:30:41;4.17;;;2.83;;
40176;SDS011;31511;46.176;9.874;2022-12-07T06:33:07;6.23;;;3.53;;
40176;SDS011;31511;46.176;9.874;2022-12-07T06:35:34;7.20;;;2.97;;
40176;SDS011;31511;46.176;9.874;2022-12-07T06:38:00;4.20;;;2.73;;
40176;SDS011;31511;46.176;9.874;2022-12-07T06:40:27;3.10;;;2.20;;
40176;SDS011;31511;46.176;9.874;2022-12-07T06:42:53;4.47;;;3.10;;
40176;SDS011;31511;46.176;9.874;2022-12-07T06:45:20;3.37;;;2.30;;
40176;SDS011;31511;46.176;9.874;2022-12-07T06:47:48;2.53;;;2.07;;
40176;SDS011;31511;46.176;9.874;2022-12-07T06:50:14;3.30;;;2.83;;
40176;SDS011;31511;46.176;9.874;2022-12-07T06:52:41;6.57;;;4.13;;
40176;SDS011;31511;46.176;9.874;2022-12-07T06:55:07;7.40;;;4.87;;
40176;SDS011;31511;46.176;9.874;2022-12-07T06:57:34;8.33;;;5.13;;
40176;SDS011;31511;46.176;9.874;2022-12-07T07:00:00;9.63;;;6.33;;
40176;SDS011;31511;46.176;9.874;2022-12-07T07:02:28;7.93;;;4.87;;
40176;SDS011;31511;46.176;9.874;2022-12-07T07:04:55;8.87;;;5.27;;
40176;SDS011;31511;46.176;9.874;2022-12-07T07:07:23;5.97;;;4.27;;
40176;SDS011;31511;46.176;9.874;2022-12-07T07:09:51;6.50;;;3.93;;
40176;SDS011;31511;46.176;9.874;2022-12-07T07:12:17;6.27;;;4.83;;
40176;SDS011;31511;46.176;9.874;2022-12-07T07:14:45;8.80;;;4.47;;
40176;SDS011;31511;46.176;9.874;2022-12-07T07:17:11;4.20;;;3.07;;
40176;SDS011;31511;46.176;9.874;2022-12-07T07:19:38;6.13;;;2.73;;
40176;SDS011;31511;46.176;9.874;2022-12-07T07:22:04;3.97;;;2.87;;
40176;SDS011;31511;46.176;9.874;2022-12-07T07:24:31;5.27;;;3.47;;
40176;SDS011;31511;46.176;9.874;2022-12-07T07:26:57;5.17;;;2.70;;
40176;SDS011;31511;46.176;9.874;2022-12-07T07:29:24;5.23;;;2.77;;
40176;SDS011;31511;46.176;9.874;2022-12-07T07:31:52;4.43;;;2.80;;
40176;SDS011;31511;46.176;9.874;2022-12-07T07:34:19;4.70;;;3.00;;
40176;SDS011;31511;46.176;9.874;2022-12-07T07:36:47;4.80;;;1.97;;
40176;SDS011;31511;46.176;9.874;2022-12-07T07:39:13;4.83;;;2.30;;
40176;SDS011;31511;46.176;9.874;2022-12-07T07:41:40;7.30;;;4.63;;
40176;SDS011;31511;46.176;9.874;2022-12-07T07:44:06;8.47;;;3.23;;
40176;SDS011;31511;46.176;9.874;2022-12-07T07:46:33;5.03;;;3.27;;
40176;SDS011;31511;46.176;9.874;2022-12-07T07:49:00;5.47;;;3.53;;
40176;SDS011;31511;46.176;9.874;2022-12-07T07:51:27;13.57;;;8.83;;
40176;SDS011;31511;46.176;9.874;2022-12-07T07:53:55;7.87;;;4.90;;
40176;SDS011;31511;46.176;9.874;2022-12-07T07:56:23;6.03;;;3.83;;
40176;SDS011;31511;46.176;9.874;2022-12-07T07:58:51;6.10;;;3.87;;
40176;SDS011;31511;46.176;9.874;2022-12-07T08:01:17;8.47;;;4.53;;
40176;SDS011;31511;46.176;9.874;2022-12-07T08:03:47;17.13;;;7.70;;
40176;SDS011;31511;46.176;9.874;2022-12-07T08:06:15;19.50;;;13.57;;
40176;SDS011;31511;46.176;9.874;2022-12-07T08:08:42;18.93;;;11.43;;
40176;SDS011;31511;46.176;9.874;2022-12-07T08:11:09;14.10;;;8.27;;
40176;SDS011;31511;46.176;9.874;2022-12-07T08:13:36;17.10;;;9.90;;
40176;SDS011;31511;46.176;9.874;2022-12-07T08:16:03;19.50;;;11.50;;
40176;SDS011;31511;46.176;9.874;2022-12-07T08:18:30;15.57;;;9.97;;
40176;SDS011;31511;46.176;9.874;2022-12-07T08:20:59;13.50;;;8.93;;
40176;SDS011;31511;46.176;9.874;2022-12-07T08:23:27;13.03;;;8.30;;
40176;SDS011;31511;46.176;9.874;2022-12-07T08:25:55;10.43;;;6.10;;
40176;SDS011;31511;46.176;9.874;2022-12-07T08:28:27;12.97;;;6.30;;
40176;SDS011;31511;46.176;9.874;2022-12-07T08:31:14;12.27;;;7.37;;
40176;SDS011;31511;46.176;9.874;2022-12-07T08:33:40;14.37;;;10.10;;
40176;SDS011;31511;46.176;9.874;2022-12-07T08:36:08;12.47;;;8.90;;
40176;SDS011;31511;46.176;9.874;2022-12-07T08:38:36;9.35;;;6.15;;
40176;SDS011;31511;46.176;9.874;2022-12-07T08:41:02;10.32;;;5.63;;
40176;SDS011;31511;46.176;9.874;2022-12-07T08:43:30;12.02;;;6.00;;
40176;SDS011;31511;46.176;9.874;2022-12-07T08:46:08;7.10;;;5.53;;
40176;SDS011;31511;46.176;9.874;2022-12-07T08:48:36;8.68;;;5.68;;
40176;SDS011;31511;46.176;9.874;2022-12-07T08:51:03;7.60;;;5.65;;
40176;SDS011;31511;46.176;9.874;2022-12-07T08:53:30;9.85;;;6.57;;
40176;SDS011;31511;46.176;9.874;2022-12-07T08:55:56;9.35;;;6.72;;
40176;SDS011;31511;46.176;9.874;2022-12-07T08:58:24;9.93;;;6.93;;
40176;SDS011;31511;46.176;9.874;2022-12-07T09:00:52;8.80;;;6.88;;
40176;SDS011;31511;46.176;9.874;2022-12-07T09:03:19;12.75;;;7.72;;
40176;SDS011;31511;46.176;9.874;2022-12-07T09:05:47;9.23;;;6.85;;
40176;SDS011;31511;46.176;9.874;2022-12-07T09:08:13;9.43;;;5.93;;
40176;SDS011;31511;46.176;9.874;2022-12-07T09:10:40;9.35;;;6.50;;
40176;SDS011;31511;46.176;9.874;2022-12-07T09:13:07;11.15;;;6.85;;
40176;SDS011;31511;46.176;9.874;2022-12-07T09:15:34;16.08;;;10.30;;
40176;SDS011;31511;46.176;9.874;2022-12-07T09:18:00;15.70;;;10.88;;
40176;SDS011;31511;46.176;9.874;2022-12-07T09:20:27;16.33;;;11.57;;
40176;SDS011;31511;46.176;9.874;2022-12-07T09:22:55;16.25;;;9.55;;
40176;SDS011;31511;46.176;9.874;2022-12-07T09:25:23;12.90;;;8.20;;
40176;SDS011;31511;46.176;9.874;2022-12-07T09:27:55;13.55;;;8.98;;
40176;SDS011;31511;46.176;9.874;2022-12-07T09:30:22;17.25;;;10.73;;
40176;SDS011;31511;46.176;9.874;2022-12-07T09:32:48;16.05;;;10.35;;
40176;SDS011;31511;46.176;9.874;2022-12-07T09:35:14;13.45;;;9.93;;
40176;SDS011;31511;46.176;9.874;2022-12-07T09:37:41;10.68;;;8.43;;
40176;SDS011;31511;46.176;9.874;2022-12-07T09:40:07;9.35;;;7.00;;
40176;SDS011;31511;46.176;9.874;2022-12-07T09:42:38;10.50;;;7.90;;
40176;SDS011;31511;46.176;9.874;2022-12-07T09:45:05;16.40;;;10.77;;
40176;SDS011;31511;46.176;9.874;2022-12-07T09:47:33;16.08;;;10.63;;
40176;SDS011;31511;46.176;9.874;2022-12-07T09:50:06;11.93;;;8.95;;
40176;SDS011;31511;46.176;9.874;2022-12-07T09:52:33;8.35;;;7.15;;
40176;SDS011;31511;46.176;9.874;2022-12-07T09:55:01;10.32;;;7.22;;
40176;SDS011;31511;46.176;9.874;2022-12-07T09:57:29;9.05;;;6.57;;
40176;SDS011;31511;46.176;9.874;2022-12-07T09:59:57;7.38;;;6.30;;
40176;SDS011;31511;46.176;9.874;2022-12-07T10:05:01;8.38;;;5.85;;
40176;SDS011;31511;46.176;9.874;2022-12-07T10:07:29;14.00;;;8.30;;
40176;SDS011;31511;46.176;9.874;2022-12-07T10:09:55;12.88;;;8.82;;
40176;SDS011;31511;46.176;9.874;2022-12-07T10:12:23;10.32;;;8.02;;
40176;SDS011;31511;46.176;9.874;2022-12-07T10:17:31;16.33;;;11.93;;
40176;SDS011;31511;46.176;9.874;2022-12-07T10:22:58;19.77;;;13.50;;
40176;SDS011;31511;46.176;9.874;2022-12-07T10:25:27;15.52;;;12.57;;
40176;SDS011;31511;46.176;9.874;2022-12-07T10:27:57;20.23;;;13.25;;
40176;SDS011;31511;46.176;9.874;2022-12-07T10:30:24;19.08;;;12.50;;
40176;SDS011;31511;46.176;9.874;2022-12-07T10:32:50;16.75;;;11.38;;
40176;SDS011;31511;46.176;9.874;2022-12-07T10:37:48;14.93;;;10.93;;
40176;SDS011;31511;46.176;9.874;2022-12-07T10:40:29;18.75;;;11.63;;
40176;SDS011;31511;46.176;9.874;2022-12-07T10:43:17;19.17;;;12.38;;
40176;SDS011;31511;46.176;9.874;2022-12-07T10:48:31;18.20;;;13.27;;
40176;SDS011;31511;46.176;9.874;2022-12-07T10:53:52;17.58;;;13.65;;
40176;SDS011;31511;46.176;9.874;2022-12-07T10:56:34;19.80;;;13.90;;
40176;SDS011;31511;46.176;9.874;2022-12-07T11:01:33;14.73;;;11.48;;
40176;SDS011;31511;46.176;9.874;2022-12-07T11:04:10;17.65;;;12.48;;
40176;SDS011;31511;46.176;9.874;2022-12-07T11:07:02;14.20;;;11.32;;
40176;SDS011;31511;46.176;9.874;2022-12-07T11:14:54;15.95;;;10.85;;
40176;SDS011;31511;46.176;9.874;2022-12-07T11:17:28;12.25;;;10.00;;
40176;SDS011;31511;46.176;9.874;2022-12-07T11:22:36;13.95;;;9.05;;
40176;SDS011;31511;46.176;9.874;2022-12-07T11:25:16;11.68;;;8.80;;
40176;SDS011;31511;46.176;9.874;2022-12-07T11:27:47;12.57;;;8.90;;
40176;SDS011;31511;46.176;9.874;2022-12-07T11:35:20;11.20;;;8.10;;
40176;SDS011;31511;46.176;9.874;2022-12-07T11:37:49;7.93;;;6.78;;
40176;SDS011;31511;46.176;9.874;2022-12-07T11:40:24;9.30;;;7.20;;
40176;SDS011;31511;46.176;9.874;2022-12-07T11:45:30;7.00;;;5.32;;
40176;SDS011;31511;46.176;9.874;2022-12-07T11:52:58;6.82;;;5.75;;
40176;SDS011;31511;46.176;9.874;2022-12-07T11:58:11;6.03;;;5.28;;
40176;SDS011;31511;46.176;9.874;2022-12-07T12:00:41;7.15;;;5.68;;
40176;SDS011;31511;46.176;9.874;2022-12-07T12:03:15;8.48;;;6.30;;
40176;SDS011;31511;46.176;9.874;2022-12-07T12:05:46;11.45;;;7.30;;
40176;SDS011;31511;46.176;9.874;2022-12-07T12:08:20;9.43;;;7.75;;
40176;SDS011;31511;46.176;9.874;2022-12-07T12:10:53;8.35;;;6.38;;
40176;SDS011;31511;46.176;9.874;2022-12-07T12:20:56;8.65;;;5.78;;
40176;SDS011;31511;46.176;9.874;2022-12-07T12:23:37;7.55;;;4.93;;
40176;SDS011;31511;46.176;9.874;2022-12-07T12:26:06;7.07;;;4.28;;
40176;SDS011;31511;46.176;9.874;2022-12-07T12:33:51;2.90;;;2.08;;
40176;SDS011;31511;46.176;9.874;2022-12-07T12:43:59;4.75;;;3.17;;
40176;SDS011;31511;46.176;9.874;2022-12-07T12:51:52;3.92;;;2.47;;
40176;SDS011;31511;46.176;9.874;2022-12-07T12:54:37;4.47;;;2.50;;
40176;SDS011;31511;46.176;9.874;2022-12-07T12:59:29;3.95;;;2.88;;
40176;SDS011;31511;46.176;9.874;2022-12-07T13:02:07;4.18;;;2.47;;
40176;SDS011;31511;46.176;9.874;2022-12-07T13:04:39;4.13;;;2.65;;
40176;SDS011;31511;46.176;9.874;2022-12-07T13:07:47;3.60;;;1.85;;
40176;SDS011;31511;46.176;9.874;2022-12-07T13:10:00;3.22;;;2.35;;
40176;SDS011;31511;46.176;9.874;2022-12-07T13:12:28;4.57;;;3.33;;
40176;SDS011;31511;46.176;9.874;2022-12-07T13:14:55;7.00;;;3.28;;
40176;SDS011;31511;46.176;9.874;2022-12-07T13:20:01;9.07;;;3.95;;
40176;SDS011;31511;46.176;9.874;2022-12-07T13:27:30;6.32;;;5.25;;
40176;SDS011;31511;46.176;9.874;2022-12-07T13:29:56;7.63;;;3.38;;
40176;SDS011;31511;46.176;9.874;2022-12-07T13:32:25;4.88;;;3.50;;
40176;SDS011;31511;46.176;9.874;2022-12-07T13:34:53;3.40;;;2.40;;
40176;SDS011;31511;46.176;9.874;2022-12-07T13:37:28;4.05;;;2.85;;
40176;SDS011;31511;46.176;9.874;2022-12-07T13:42:26;5.80;;;1.90;;
40176;SDS011;31511;46.176;9.874;2022-12-07T13:44:55;5.38;;;2.50;;
40176;SDS011;31511;46.176;9.874;2022-12-07T13:49:55;3.25;;;2.38;;
40176;SDS011;31511;46.176;9.874;2022-12-07T13:52:24;4.40;;;2.20;;
40176;SDS011;31511;46.176;9.874;2022-12-07T13:54:59;5.45;;;2.28;;
40176;SDS011;31511;46.176;9.874;2022-12-07T13:57:28;3.40;;;2.60;;
40176;SDS011;31511;46.176;9.874;2022-12-07T13:59:56;6.88;;;4.05;;
40176;SDS011;31511;46.176;9.874;2022-12-07T14:02:28;7.47;;;3.45;;
40176;SDS011;31511;46.176;9.874;2022-12-07T14:05:07;5.90;;;3.72;;
40176;SDS011;31511;46.176;9.874;2022-12-07T14:07:33;7.65;;;4.03;;
40176;SDS011;31511;46.176;9.874;2022-12-07T14:10:02;7.90;;;4.55;;
40176;SDS011;31511;46.176;9.874;2022-12-07T14:12:31;10.07;;;6.28;;
40176;SDS011;31511;46.176;9.874;2022-12-07T14:14:58;12.02;;;6.90;;
40176;SDS011;31511;46.176;9.874;2022-12-07T14:17:26;7.32;;;4.65;;
40176;SDS011;31511;46.176;9.874;2022-12-07T14:19:55;7.57;;;4.32;;
40176;SDS011;31511;46.176;9.874;2022-12-07T14:22:30;10.63;;;4.85;;
40176;SDS011;31511;46.176;9.874;2022-12-07T14:27:49;6.07;;;3.47;;
40176;SDS011;31511;46.176;9.874;2022-12-07T14:30:16;8.65;;;3.83;;
40176;SDS011;31511;46.176;9.874;2022-12-07T14:32:43;4.68;;;3.05;;
40176;SDS011;31511;46.176;9.874;2022-12-07T14:35:14;5.43;;;3.50;;
40176;SDS011;31511;46.176;9.874;2022-12-07T14:37:43;6.55;;;5.05;;
40176;SDS011;31511;46.176;9.874;2022-12-07T14:40:13;7.22;;;4.90;;
40176;SDS011;31511;46.176;9.874;2022-12-07T14:42:41;9.13;;;5.65;;
40176;SDS011;31511;46.176;9.874;2022-12-07T14:45:13;8.50;;;5.47;;
40176;SDS011;31511;46.176;9.874;2022-12-07T14:47:43;7.82;;;4.55;;
40176;SDS011;31511;46.176;9.874;2022-12-07T14:50:11;9.23;;;4.72;;
40176;SDS011;31511;46.176;9.874;2022-12-07T14:52:38;7.72;;;5.38;;
40176;SDS011;31511;46.176;9.874;2022-12-07T14:55:07;13.60;;;5.47;;
40176;SDS011;31511;46.176;9.874;2022-12-07T14:57:39;12.13;;;5.40;;
40176;SDS011;31511;46.176;9.874;2022-12-07T15:00:05;22.08;;;12.30;;
40176;SDS011;31511;46.176;9.874;2022-12-07T15:02:31;21.50;;;13.20;;
40176;SDS011;31511;46.176;9.874;2022-12-07T15:04:57;35.85;;;16.63;;
40176;SDS011;31511;46.176;9.874;2022-12-07T15:07:24;57.08;;;25.00;;
40176;SDS011;31511;46.176;9.874;2022-12-07T15:09:52;12.20;;;5.53;;
40176;SDS011;31511;46.176;9.874;2022-12-07T15:12:20;5.45;;;3.10;;
40176;SDS011;31511;46.176;9.874;2022-12-07T15:14:50;5.72;;;2.55;;
40176;SDS011;31511;46.176;9.874;2022-12-07T15:17:16;6.93;;;3.72;;
40176;SDS011;31511;46.176;9.874;2022-12-07T15:19:43;31.92;;;17.25;;
40176;SDS011;31511;46.176;9.874;2022-12-07T15:22:09;38.85;;;19.85;;
40176;SDS011;31511;46.176;9.874;2022-12-07T15:24:37;23.63;;;11.90;;
40176;SDS011;31511;46.176;9.874;2022-12-07T15:27:03;16.70;;;8.45;;
40176;SDS011;31511;46.176;9.874;2022-12-07T15:29:29;21.42;;;11.80;;
40176;SDS011;31511;46.176;9.874;2022-12-07T15:31:55;24.42;;;10.48;;
40176;SDS011;31511;46.176;9.874;2022-12-07T15:34:23;21.80;;;10.57;;
40176;SDS011;31511;46.176;9.874;2022-12-07T15:36:52;21.27;;;10.15;;
40176;SDS011;31511;46.176;9.874;2022-12-07T15:39:19;21.80;;;8.75;;
40176;SDS011;31511;46.176;9.874;2022-12-07T15:41:47;31.88;;;14.43;;
40176;SDS011;31511;46.176;9.874;2022-12-07T15:44:13;46.67;;;22.88;;
40176;SDS011;31511;46.176;9.874;2022-12-07T15:46:59;26.90;;;14.02;;
40176;SDS011;31511;46.176;9.874;2022-12-07T15:49:26;22.40;;;9.05;;
40176;SDS011;31511;46.176;9.874;2022-12-07T15:51:54;19.13;;;10.00;;
40176;SDS011;31511;46.176;9.874;2022-12-07T15:54:22;16.77;;;8.45;;
40176;SDS011;31511;46.176;9.874;2022-12-07T15:56:51;13.07;;;8.15;;
40176;SDS011;31511;46.176;9.874;2022-12-07T15:59:17;11.50;;;6.20;;
40176;SDS011;31511;46.176;9.874;2022-12-07T16:01:43;10.85;;;6.30;;
40176;SDS011;31511;46.176;9.874;2022-12-07T16:04:09;10.23;;;7.13;;
40176;SDS011;31511;46.176;9.874;2022-12-07T16:06:37;11.27;;;6.32;;
40176;SDS011;31511;46.176;9.874;2022-12-07T16:09:03;9.45;;;6.32;;
40176;SDS011;31511;46.176;9.874;2022-12-07T16:11:29;13.10;;;6.88;;
40176;SDS011;31511;46.176;9.874;2022-12-07T16:13:55;16.58;;;9.80;;
40176;SDS011;31511;46.176;9.874;2022-12-07T16:16:23;22.83;;;11.70;;
40176;SDS011;31511;46.176;9.874;2022-12-07T16:18:51;25.88;;;13.18;;
40176;SDS011;31511;46.176;9.874;2022-12-07T16:21:17;18.02;;;11.25;;
40176;SDS011;31511;46.176;9.874;2022-12-07T16:23:45;11.15;;;7.13;;
40176;SDS011;31511;46.176;9.874;2022-12-07T16:26:21;10.98;;;7.22;;
40176;SDS011;31511;46.176;9.874;2022-12-07T16:28:49;10.48;;;6.95;;
40176;SDS011;31511;46.176;9.874;2022-12-07T16:31:18;19.90;;;12.73;;
40176;SDS011;31511;46.176;9.874;2022-12-07T16:33:46;16.10;;;10.07;;
40176;SDS011;31511;46.176;9.874;2022-12-07T16:36:14;15.65;;;10.25;;
40176;SDS011;31511;46.176;9.874;2022-12-07T16:38:41;12.77;;;9.30;;
40176;SDS011;31511;46.176;9.874;2022-12-07T16:41:08;13.23;;;9.00;;
40176;SDS011;31511;46.176;9.874;2022-12-07T16:43:35;12.57;;;8.60;;
40176;SDS011;31511;46.176;9.874;2022-12-07T16:46:02;10.80;;;7.47;;